createdAt,value
2023-01-19T00:00:00.093Z,90545.88
2023-01-19T00:02:26.777Z,90535.88
2023-01-19T00:04:53.463Z,90544.34
2023-01-19T00:07:20.026Z,90549.09
2023-01-19T00:09:46.772Z,90555.06
2023-01-19T00:12:13.378Z,90543.00
2023-01-19T00:14:40.147Z,90533.34
2023-01-19T00:17:07.390Z,90526.97
2023-01-19T00:19:34.043Z,90535.63
2023-01-19T00:22:00.777Z,90536.47
2023-01-19T00:24:27.403Z,90537.34
2023-01-19T00:26:54.055Z,90551.34
2023-01-19T00:29:20.650Z,90556.19
2023-01-19T00:31:47.423Z,90565.91
2023-01-19T00:34:14.083Z,90557.41
2023-01-19T00:36:40.883Z,90579.03
2023-01-19T00:39:07.869Z,90591.88
2023-01-19T00:41:53.335Z,90591.19
2023-01-19T00:44:19.957Z,90581.50
2023-01-19T00:46:46.652Z,90585.84
2023-01-19T00:49:13.249Z,90581.31
2023-01-19T00:51:39.870Z,90576.84
2023-01-19T00:54:10.383Z,90580.94
2023-01-19T00:56:37.487Z,90592.66
2023-01-19T00:59:05.056Z,90574.13
2023-01-19T01:01:45.446Z,90587.44
2023-01-19T01:04:13.617Z,90582.41
2023-01-19T01:06:40.347Z,90576.84
2023-01-19T01:09:12.115Z,90589.66
2023-01-19T01:11:39.976Z,90571.75
2023-01-19T01:14:06.978Z,90582.75
2023-01-19T01:16:33.744Z,90574.78
2023-01-19T01:19:00.475Z,90561.09
2023-01-19T01:21:27.147Z,90553.72
2023-01-19T01:23:53.872Z,90562.53
2023-01-19T01:26:20.578Z,90565.16
2023-01-19T01:28:47.210Z,90570.25
2023-01-19T01:31:13.898Z,90558.19
2023-01-19T01:33:41.927Z,90549.38
2023-01-19T01:36:10.053Z,90561.06
2023-01-19T01:38:36.696Z,90552.72
2023-01-19T01:41:03.668Z,90545.41
2023-01-19T01:43:50.121Z,90563.56
2023-01-19T01:46:17.405Z,90559.03
2023-01-19T01:48:51.377Z,90556.16
2023-01-19T01:51:28.897Z,90562.19
2023-01-19T01:54:00.541Z,90572.06
2023-01-19T01:56:34.488Z,90546.56
2023-01-19T01:59:02.426Z,90552.72
2023-01-19T02:01:47.710Z,90558.59
2023-01-19T02:04:14.469Z,90551.75
2023-01-19T02:06:59.631Z,90551.28
2023-01-19T02:09:44.743Z,90565.19
2023-01-19T02:12:30.572Z,90575.88
2023-01-19T02:14:57.252Z,90572.31
2023-01-19T02:17:23.978Z,90555.13
2023-01-19T02:19:51.008Z,90572.63
2023-01-19T02:22:23.439Z,90577.25
2023-01-19T02:24:50.145Z,90564.88
2023-01-19T02:27:16.827Z,90559.19
2023-01-19T02:29:43.449Z,90567.09
2023-01-19T02:32:10.282Z,90574.75
2023-01-19T02:34:37.013Z,90564.66
2023-01-19T02:37:21.770Z,90552.06
2023-01-19T02:39:59.091Z,90561.22
2023-01-19T02:42:30.919Z,90557.56
2023-01-19T02:44:57.741Z,90552.69
2023-01-19T02:47:24.375Z,90554.03
2023-01-19T02:49:56.104Z,90547.41
2023-01-19T02:52:22.837Z,90539.06
2023-01-19T02:54:58.435Z,90542.31
2023-01-19T02:57:49.189Z,90550.16
2023-01-19T03:00:37.441Z,90546.66
2023-01-19T03:03:07.065Z,90554.66
2023-01-19T03:05:49.970Z,90550.91
2023-01-19T03:08:39.563Z,90530.97
2023-01-19T03:11:12.804Z,90533.34
2023-01-19T03:14:00.948Z,90541.22
2023-01-19T03:16:31.479Z,90541.72
2023-01-19T03:19:16.223Z,90532.22
2023-01-19T03:21:44.329Z,90554.00
2023-01-19T03:24:11.406Z,90550.41
2023-01-19T03:26:41.598Z,90547.97
2023-01-19T03:29:08.238Z,90552.69
2023-01-19T03:31:34.874Z,90554.59
2023-01-19T03:34:03.813Z,90556.16
2023-01-19T03:36:34.002Z,90536.56
2023-01-19T03:39:00.956Z,90564.56
2023-01-19T03:41:28.490Z,90553.53
2023-01-19T03:43:55.648Z,90554.53
2023-01-19T03:46:22.940Z,90575.75
2023-01-19T03:48:49.935Z,90532.16
2023-01-19T03:51:16.586Z,90536.53
2023-01-19T03:53:43.289Z,90553.25
2023-01-19T03:56:27.873Z,90526.53
2023-01-19T03:58:56.220Z,90529.09
2023-01-19T04:01:23.874Z,90529.03
2023-01-19T04:03:51.306Z,90533.75
2023-01-19T04:06:18.124Z,90519.94
2023-01-19T04:08:44.850Z,90536.88
2023-01-19T04:11:12.329Z,90522.56
2023-01-19T04:13:39.027Z,90527.38
2023-01-19T04:16:06.243Z,90538.97
2023-01-19T04:18:34.725Z,90543.22
2023-01-19T04:21:06.195Z,90558.69
2023-01-19T04:23:33.588Z,90542.94
2023-01-19T04:26:01.201Z,90544.31
2023-01-19T04:28:27.905Z,90542.16
2023-01-19T04:30:54.695Z,90535.50
2023-01-19T04:33:21.517Z,90528.44
2023-01-19T04:35:48.712Z,90542.53
2023-01-19T04:38:15.313Z,90537.06
2023-01-19T04:40:41.980Z,90529.84
2023-01-19T04:43:08.879Z,90527.38
2023-01-19T04:45:36.588Z,90529.66
2023-01-19T04:48:06.672Z,90535.28
2023-01-19T04:50:33.389Z,90538.59
2023-01-19T04:53:00.979Z,90544.22
2023-01-19T04:55:27.964Z,90538.84
2023-01-19T04:57:54.842Z,90537.16
2023-01-19T05:00:21.748Z,90548.22
2023-01-19T05:02:48.591Z,90549.88
2023-01-19T05:05:15.369Z,90553.88
2023-01-19T05:07:42.778Z,90535.28
2023-01-19T05:10:10.227Z,90543.38
2023-01-19T05:12:37.329Z,90551.09
2023-01-19T05:15:04.449Z,90550.47
2023-01-19T05:17:31.047Z,90539.72
2023-01-19T05:19:57.708Z,90553.69
2023-01-19T05:22:24.544Z,90566.88
2023-01-19T05:24:51.132Z,90570.84
2023-01-19T05:27:17.854Z,90592.59
2023-01-19T05:29:44.441Z,90566.31
2023-01-19T05:32:11.177Z,90574.56
2023-01-19T05:34:37.815Z,90581.72
2023-01-19T05:37:04.439Z,90588.00
2023-01-19T05:39:31.191Z,90579.44
2023-01-19T05:41:57.772Z,90574.34
2023-01-19T05:44:24.559Z,90588.34
2023-01-19T05:46:51.320Z,90593.06
2023-01-19T05:49:18.020Z,90598.88
2023-01-19T05:51:45.544Z,90589.88
2023-01-19T05:54:14.202Z,90597.03
2023-01-19T05:56:40.912Z,90595.22
2023-01-19T05:59:07.607Z,90611.59
2023-01-19T06:01:37.037Z,90594.69
2023-01-19T06:04:05.749Z,90603.25
2023-01-19T06:06:32.453Z,90611.84
2023-01-19T06:08:59.292Z,90617.56
2023-01-19T06:11:26.263Z,90616.31
2023-01-19T06:13:52.887Z,90598.94
2023-01-19T06:16:19.632Z,90594.72
2023-01-19T06:18:46.319Z,90603.44
2023-01-19T06:21:14.371Z,90596.69
2023-01-19T06:23:41.126Z,90603.22
2023-01-19T06:26:07.804Z,90604.06
2023-01-19T06:28:34.558Z,90606.97
2023-01-19T06:31:01.329Z,90608.94
2023-01-19T06:33:28.097Z,90626.31
2023-01-19T06:35:54.877Z,90621.47
2023-01-19T06:38:21.743Z,90629.38
2023-01-19T06:40:55.860Z,90624.19
2023-01-19T06:43:22.583Z,90626.31
2023-01-19T06:45:50.211Z,90622.97
2023-01-19T06:48:17.006Z,90613.47
2023-01-19T06:50:46.959Z,90630.31
2023-01-19T06:53:14.636Z,90618.75
2023-01-19T06:55:41.221Z,90609.13
2023-01-19T06:58:08.533Z,90620.59
2023-01-19T07:00:35.328Z,90605.44
2023-01-19T07:03:02.611Z,90610.34
2023-01-19T07:05:29.482Z,90603.91
2023-01-19T07:07:56.652Z,90616.31
2023-01-19T07:10:24.331Z,90616.38
2023-01-19T07:12:51.033Z,90606.44
2023-01-19T07:15:19.780Z,90612.06
2023-01-19T07:17:46.456Z,90620.91
2023-01-19T07:20:14.279Z,90628.78
2023-01-19T07:22:41.895Z,90632.16
2023-01-19T07:25:08.949Z,90618.00
2023-01-19T07:27:35.661Z,90614.94
2023-01-19T07:30:02.513Z,90616.22
2023-01-19T07:32:29.189Z,90618.25
2023-01-19T07:34:55.849Z,90619.22
2023-01-19T07:37:22.550Z,90618.00
2023-01-19T07:39:49.223Z,90621.31
2023-01-19T07:42:15.939Z,90616.00
2023-01-19T07:44:42.702Z,90607.97
2023-01-19T07:47:12.561Z,90613.38
2023-01-19T07:49:39.725Z,90590.41
2023-01-19T07:52:06.385Z,90601.91
2023-01-19T07:54:33.237Z,90604.19
2023-01-19T07:57:00.880Z,90618.50
2023-01-19T07:59:31.140Z,90610.63
2023-01-19T08:01:59.558Z,90614.13
2023-01-19T08:04:27.370Z,90607.16
2023-01-19T08:06:54.216Z,90615.97
2023-01-19T08:09:20.892Z,90624.66
2023-01-19T08:11:47.521Z,90626.97
2023-01-19T08:14:14.160Z,90601.56
2023-01-19T08:16:40.828Z,90628.34
2023-01-19T08:19:07.443Z,90638.78
2023-01-19T08:21:35.596Z,90636.28
2023-01-19T08:24:02.533Z,90629.16
2023-01-19T08:26:30.679Z,90624.38
2023-01-19T08:28:58.368Z,90635.66
2023-01-19T08:31:25.315Z,90626.34
2023-01-19T08:33:52.331Z,90613.34
2023-01-19T08:36:19.518Z,90636.50
2023-01-19T08:38:46.406Z,90628.44
2023-01-19T08:41:13.266Z,90638.25
2023-01-19T08:43:39.864Z,90643.56
2023-01-19T08:46:06.794Z,90640.47
2023-01-19T08:48:33.626Z,90634.00
2023-01-19T08:51:00.549Z,90637.06
2023-01-19T08:53:27.270Z,90641.03
2023-01-19T08:56:01.331Z,90650.06
2023-01-19T08:58:28.355Z,90655.38
2023-01-19T09:00:55.226Z,90649.28
2023-01-19T09:03:22.873Z,90663.28
2023-01-19T09:05:49.691Z,90652.56
2023-01-19T09:08:16.624Z,90669.75
2023-01-19T09:10:48.077Z,90652.03
2023-01-19T09:13:14.882Z,90667.50
2023-01-19T09:15:41.770Z,90665.97
2023-01-19T09:18:10.388Z,90668.59
2023-01-19T09:20:39.082Z,90653.00
2023-01-19T09:23:06.270Z,90661.28
2023-01-19T09:25:32.960Z,90655.47
2023-01-19T09:28:00.524Z,90659.69
2023-01-19T09:30:27.943Z,90660.09
2023-01-19T09:32:54.682Z,90656.22
2023-01-19T09:35:21.698Z,90661.31
2023-01-19T09:37:48.383Z,90637.06
2023-01-19T09:40:15.463Z,90626.06
2023-01-19T09:42:46.440Z,90638.47
2023-01-19T09:45:23.361Z,90648.13
2023-01-19T09:47:49.939Z,90653.44
2023-01-19T09:50:28.175Z,90660.94
2023-01-19T09:53:07.523Z,90666.53
2023-01-19T09:55:34.226Z,90654.06
2023-01-19T09:58:01.237Z,90641.16
2023-01-19T10:00:28.067Z,90642.22
2023-01-19T10:02:57.685Z,90650.03
2023-01-19T10:05:34.062Z,90659.81
2023-01-19T10:08:28.720Z,90660.47
2023-01-19T10:10:56.839Z,90663.38
2023-01-19T10:13:36.552Z,90670.88
2023-01-19T10:16:15.006Z,90662.63
2023-01-19T10:18:45.972Z,90656.56
2023-01-19T10:21:27.251Z,90660.94
2023-01-19T10:24:18.079Z,90653.13
2023-01-19T10:26:49.815Z,90640.06
2023-01-19T10:29:26.761Z,90632.34
2023-01-19T10:31:55.472Z,90631.50
2023-01-19T10:34:23.942Z,90645.97
2023-01-19T10:36:50.909Z,90652.63
2023-01-19T10:39:18.392Z,90631.94
2023-01-19T10:41:49.287Z,90612.88
2023-01-19T10:44:26.512Z,90608.59
2023-01-19T10:46:54.489Z,90626.94
2023-01-19T10:49:28.181Z,90637.16
2023-01-19T10:51:55.820Z,90623.81
2023-01-19T10:54:22.592Z,90606.81
2023-01-19T10:56:57.363Z,90612.25
2023-01-19T10:59:31.153Z,90625.53
2023-01-19T11:02:21.188Z,90613.03
2023-01-19T11:04:50.125Z,90617.00
2023-01-19T11:07:27.956Z,90619.31
2023-01-19T11:10:11.818Z,90607.22
2023-01-19T11:13:02.100Z,90598.63
2023-01-19T11:15:33.188Z,90616.81
2023-01-19T11:18:00.096Z,90598.66
2023-01-19T11:20:34.316Z,90578.16
2023-01-19T11:23:08.367Z,90600.75
2023-01-19T11:25:35.479Z,90612.00
2023-01-19T11:28:02.180Z,90605.38
2023-01-19T11:30:34.999Z,90617.78
2023-01-19T11:33:01.938Z,90611.88
2023-01-19T11:35:35.974Z,90604.81
2023-01-19T11:38:20.329Z,90600.19
2023-01-19T11:40:52.797Z,90589.75
2023-01-19T11:43:20.823Z,90582.88
2023-01-19T11:45:47.696Z,90575.88
2023-01-19T11:48:27.288Z,90582.75
2023-01-19T11:50:53.944Z,90596.31
2023-01-19T11:53:29.290Z,90601.09
2023-01-19T11:55:57.657Z,90578.00
2023-01-19T11:58:24.499Z,90590.81
2023-01-19T12:01:11.588Z,90592.53
2023-01-19T12:03:46.997Z,90587.97
2023-01-19T12:06:16.072Z,90593.53
2023-01-19T12:09:04.224Z,90578.50
2023-01-19T12:11:55.366Z,90584.78
2023-01-19T12:14:27.471Z,90580.66
2023-01-19T12:16:56.207Z,90583.06
2023-01-19T12:19:25.331Z,90582.19
2023-01-19T12:21:52.717Z,90562.59
2023-01-19T12:24:31.941Z,90581.53
2023-01-19T12:26:59.899Z,90573.59
2023-01-19T12:29:28.815Z,90581.34
2023-01-19T12:32:13.936Z,90571.88
2023-01-19T12:34:45.078Z,90560.53
2023-01-19T12:37:36.311Z,90560.19
2023-01-19T12:40:05.631Z,90576.72
2023-01-19T12:42:32.302Z,90584.91
2023-01-19T12:45:09.359Z,90601.47
2023-01-19T12:47:36.486Z,90587.72
2023-01-19T12:50:08.003Z,90598.75
2023-01-19T12:52:39.175Z,90606.78
2023-01-19T12:55:15.136Z,90604.34
2023-01-19T12:57:41.729Z,90591.50
2023-01-19T13:00:26.598Z,90569.44
2023-01-19T13:02:57.401Z,90579.28
2023-01-19T13:05:33.569Z,90595.19
2023-01-19T13:08:03.138Z,90601.19
2023-01-19T13:11:05.610Z,90589.09
2023-01-19T13:13:39.916Z,90594.78
2023-01-19T13:16:18.796Z,90593.84
2023-01-19T13:18:49.079Z,90583.78
2023-01-19T13:21:29.597Z,90589.88
2023-01-19T13:24:06.357Z,90597.19
2023-01-19T13:26:38.568Z,90578.13
2023-01-19T13:29:13.234Z,90577.00
2023-01-19T13:31:40.910Z,90588.91
2023-01-19T13:34:15.123Z,90609.13
2023-01-19T13:36:46.213Z,90590.94
2023-01-19T13:39:17.680Z,90596.22
2023-01-19T13:41:45.086Z,90615.34
2023-01-19T13:44:21.843Z,90637.03
2023-01-19T13:46:48.703Z,90624.09
2023-01-19T13:49:23.405Z,90597.16
2023-01-19T13:52:25.270Z,90615.31
2023-01-19T13:55:01.729Z,90615.00
2023-01-19T13:57:29.265Z,90589.94
2023-01-19T14:00:17.342Z,90568.13
2023-01-19T14:02:54.736Z,90552.38
2023-01-19T14:05:30.102Z,90547.56
2023-01-19T14:08:08.951Z,90553.28
2023-01-19T14:10:36.247Z,90571.44
2023-01-19T14:13:12.886Z,90585.78
2023-01-19T14:15:40.784Z,90586.28
2023-01-19T14:18:30.059Z,90565.38
2023-01-19T14:21:08.908Z,90567.66
2023-01-19T14:23:39.541Z,90556.31
2023-01-19T14:26:42.370Z,90554.31
2023-01-19T14:29:18.058Z,90549.41
2023-01-19T14:31:44.672Z,90544.81
2023-01-19T14:34:35.388Z,90532.00
2023-01-19T14:37:03.281Z,90517.00
2023-01-19T14:39:34.634Z,90540.69
2023-01-19T14:42:03.185Z,90561.44
2023-01-19T14:44:32.388Z,90569.44
2023-01-19T14:46:59.639Z,90579.38
2023-01-19T14:49:39.702Z,90587.63
2023-01-19T14:52:19.231Z,90597.81
2023-01-19T14:54:45.935Z,90585.47
2023-01-19T14:57:15.820Z,90603.38
2023-01-19T14:59:46.918Z,90583.22
2023-01-19T15:02:13.737Z,90574.88
2023-01-19T15:04:40.469Z,90563.34
2023-01-19T15:07:07.270Z,90561.94
2023-01-19T15:09:33.906Z,90574.09
2023-01-19T15:12:00.666Z,90570.97
2023-01-19T15:14:27.901Z,90577.47
2023-01-19T15:16:54.581Z,90581.53
2023-01-19T15:19:21.182Z,90591.72
2023-01-19T15:21:47.858Z,90589.25
2023-01-19T15:24:16.343Z,90603.44
2023-01-19T15:26:44.402Z,90612.97
2023-01-19T15:29:32.334Z,90599.28
2023-01-19T15:31:59.055Z,90585.19
2023-01-19T15:34:25.739Z,90597.50
2023-01-19T15:36:52.350Z,90600.50
2023-01-19T15:39:19.061Z,90603.19
2023-01-19T15:41:45.696Z,90606.28
2023-01-19T15:44:12.569Z,90600.16
2023-01-19T15:46:39.299Z,90598.63
2023-01-19T15:49:05.965Z,90600.03
2023-01-19T15:51:33.072Z,90603.88
2023-01-19T15:53:59.756Z,90602.44
2023-01-19T15:56:30.588Z,90593.69
2023-01-19T15:58:58.131Z,90603.88
2023-01-19T16:01:31.471Z,90609.56
2023-01-19T16:04:05.236Z,90608.28
2023-01-19T16:06:32.156Z,90609.91
2023-01-19T16:09:01.851Z,90606.50
2023-01-19T16:11:29.873Z,90600.34
2023-01-19T16:13:56.561Z,90614.06
2023-01-19T16:16:24.182Z,90606.81
2023-01-19T16:18:50.999Z,90617.78
2023-01-19T16:21:17.644Z,90614.41
2023-01-19T16:23:44.379Z,90622.41
2023-01-19T16:26:32.539Z,90612.09
2023-01-19T16:29:00.687Z,90631.97
2023-01-19T16:31:27.487Z,90615.72
2023-01-19T16:33:54.269Z,90632.16
2023-01-19T16:36:26.518Z,90631.84
2023-01-19T16:38:53.635Z,90627.78
2023-01-19T16:41:20.522Z,90629.97
2023-01-19T16:43:52.013Z,90627.38
2023-01-19T16:46:23.511Z,90630.13
2023-01-19T16:48:50.919Z,90619.91
2023-01-19T16:51:17.660Z,90614.22
2023-01-19T16:53:44.481Z,90614.13
2023-01-19T16:56:12.747Z,90618.06
2023-01-19T16:58:39.723Z,90618.59
2023-01-19T17:01:10.884Z,90615.72
2023-01-19T17:03:38.603Z,90621.00
2023-01-19T17:06:09.047Z,90614.66
2023-01-19T17:08:35.733Z,90628.44
2023-01-19T17:11:09.399Z,90636.66
2023-01-19T17:13:35.995Z,90619.91
2023-01-19T17:16:02.930Z,90639.84
2023-01-19T17:18:31.920Z,90639.41
2023-01-19T17:21:06.341Z,90655.34
2023-01-19T17:23:32.943Z,90669.69
2023-01-19T17:25:59.633Z,90671.88
2023-01-19T17:28:26.522Z,90658.69
2023-01-19T17:30:53.465Z,90633.41
2023-01-19T17:33:21.179Z,90640.34
2023-01-19T17:35:47.925Z,90642.59
2023-01-19T17:38:14.588Z,90625.22
2023-01-19T17:40:41.204Z,90622.19
2023-01-19T17:43:07.907Z,90631.91
2023-01-19T17:45:36.104Z,90638.50
2023-01-19T17:48:06.055Z,90653.06
2023-01-19T17:50:34.565Z,90651.28
2023-01-19T17:53:01.257Z,90652.41
2023-01-19T17:55:27.978Z,90645.28
2023-01-19T17:57:55.475Z,90644.28
2023-01-19T18:00:22.580Z,90654.97
2023-01-19T18:02:50.832Z,90668.97
2023-01-19T18:05:18.291Z,90658.94
2023-01-19T18:07:44.970Z,90656.00
2023-01-19T18:10:11.906Z,90658.91
2023-01-19T18:12:38.902Z,90651.91
2023-01-19T18:15:06.224Z,90639.50
2023-01-19T18:17:32.855Z,90651.91
2023-01-19T18:19:59.595Z,90648.59
2023-01-19T18:22:26.242Z,90638.09
2023-01-19T18:24:52.844Z,90646.84
2023-01-19T18:27:20.375Z,90635.63
2023-01-19T18:29:47.074Z,90642.41
2023-01-19T18:32:13.678Z,90639.59
2023-01-19T18:34:40.393Z,90641.31
2023-01-19T18:37:07.077Z,90647.38
2023-01-19T18:39:33.806Z,90636.06
2023-01-19T18:42:00.727Z,90623.94
2023-01-19T18:44:27.605Z,90627.34
2023-01-19T18:46:54.828Z,90633.88
2023-01-19T18:49:21.453Z,90638.44
2023-01-19T18:51:48.189Z,90634.75
2023-01-19T18:54:14.926Z,90641.41
2023-01-19T18:56:41.679Z,90650.63
2023-01-19T18:59:08.383Z,90643.31
2023-01-19T19:01:36.121Z,90648.41
2023-01-19T19:04:03.084Z,90658.84
2023-01-19T19:06:29.797Z,90668.09
2023-01-19T19:08:57.302Z,90671.84
2023-01-19T19:11:24.353Z,90667.41
2023-01-19T19:13:55.196Z,90666.91
2023-01-19T19:16:22.112Z,90664.88
2023-01-19T19:18:52.126Z,90670.94
2023-01-19T19:21:19.303Z,90671.72
2023-01-19T19:23:53.346Z,90667.97
2023-01-19T19:26:19.996Z,90675.81
2023-01-19T19:28:47.374Z,90677.72
2023-01-19T19:31:16.634Z,90680.19
2023-01-19T19:33:43.339Z,90693.41
2023-01-19T19:36:10.366Z,90690.53
2023-01-19T19:38:37.178Z,90681.16
2023-01-19T19:41:07.801Z,90682.50
2023-01-19T19:43:34.710Z,90678.53
2023-01-19T19:46:08.857Z,90672.53
2023-01-19T19:48:37.066Z,90668.34
2023-01-19T19:51:25.722Z,90668.47
2023-01-19T19:53:53.208Z,90670.69
2023-01-19T19:56:21.367Z,90672.22
2023-01-19T19:58:48.511Z,90665.13
2023-01-19T20:01:19.845Z,90653.88
2023-01-19T20:03:46.598Z,90653.41
2023-01-19T20:06:20.593Z,90650.03
2023-01-19T20:08:51.554Z,90657.97
2023-01-19T20:11:22.685Z,90646.16
2023-01-19T20:13:49.357Z,90654.34
2023-01-19T20:16:17.875Z,90658.13
2023-01-19T20:18:48.421Z,90660.16
2023-01-19T20:21:35.693Z,90656.16
2023-01-19T20:24:04.302Z,90646.53
2023-01-19T20:26:33.074Z,90645.56
2023-01-19T20:29:02.470Z,90648.19
2023-01-19T20:31:30.609Z,90645.09
2023-01-19T20:33:58.892Z,90654.75
2023-01-19T20:36:25.986Z,90654.47
2023-01-19T20:38:53.281Z,90645.09
2023-01-19T20:41:20.324Z,90635.75
2023-01-19T20:43:47.052Z,90628.75
2023-01-19T20:46:13.772Z,90627.06
2023-01-19T20:48:40.390Z,90612.69
2023-01-19T20:51:12.116Z,90616.06
2023-01-19T20:53:39.484Z,90623.63
2023-01-19T20:56:11.196Z,90615.69
2023-01-19T20:58:37.864Z,90622.53
2023-01-19T21:01:15.354Z,90618.47
2023-01-19T21:03:42.282Z,90607.53
2023-01-19T21:06:09.125Z,90613.06
2023-01-19T21:08:35.918Z,90618.38
2023-01-19T21:11:02.650Z,90618.56
2023-01-19T21:13:29.210Z,90612.13
2023-01-19T21:15:55.873Z,90609.78
2023-01-19T21:18:22.567Z,90608.75
2023-01-19T21:20:49.368Z,90614.09
2023-01-19T21:23:16.071Z,90619.25
2023-01-19T21:25:50.897Z,90622.97
2023-01-19T21:28:18.611Z,90617.16
2023-01-19T21:30:45.382Z,90614.13
2023-01-19T21:33:12.210Z,90620.75
2023-01-19T21:35:38.925Z,90630.44
2023-01-19T21:38:05.807Z,90622.75
2023-01-19T21:40:32.527Z,90619.22
2023-01-19T21:42:59.282Z,90596.63
2023-01-19T21:45:25.909Z,90598.09
2023-01-19T21:47:52.651Z,90591.28
2023-01-19T21:50:19.524Z,90585.94
2023-01-19T21:52:46.274Z,90590.38
2023-01-19T21:55:13.089Z,90587.47
2023-01-19T21:57:39.752Z,90584.06
2023-01-19T22:00:07.181Z,90567.44
2023-01-19T22:02:38.866Z,90585.44
2023-01-19T22:05:06.666Z,90588.13
2023-01-19T22:07:33.382Z,90590.00
2023-01-19T22:10:00.086Z,90579.81
2023-01-19T22:12:26.847Z,90574.84
2023-01-19T22:14:53.533Z,90577.53
2023-01-19T22:17:20.120Z,90558.78
2023-01-19T22:19:47.571Z,90557.56
2023-01-19T22:22:15.059Z,90553.81
2023-01-19T22:24:46.477Z,90554.75
2023-01-19T22:27:13.504Z,90551.78
2023-01-19T22:29:40.108Z,90545.53
2023-01-19T22:32:07.018Z,90544.44
2023-01-19T22:34:33.864Z,90536.81
2023-01-19T22:37:00.896Z,90506.25
2023-01-19T22:39:27.461Z,90503.97
2023-01-19T22:41:54.129Z,90503.31
2023-01-19T22:44:21.317Z,90491.31
2023-01-19T22:46:48.709Z,90496.06
2023-01-19T22:49:16.702Z,90493.50
2023-01-19T22:51:43.896Z,90503.19
2023-01-19T22:54:10.860Z,90517.53
2023-01-19T22:56:38.152Z,90515.66
2023-01-19T22:59:05.239Z,90499.38
2023-01-19T23:01:42.301Z,90499.13
2023-01-19T23:04:12.313Z,90490.34
2023-01-19T23:06:39.097Z,90500.00
2023-01-19T23:09:07.502Z,90516.03
2023-01-19T23:11:36.202Z,90509.22
2023-01-19T23:14:03.749Z,90505.50
2023-01-19T23:16:30.421Z,90500.16
2023-01-19T23:18:57.828Z,90508.19
2023-01-19T23:21:25.703Z,90499.25
2023-01-19T23:23:56.602Z,90497.13
2023-01-19T23:26:23.608Z,90506.06
2023-01-19T23:29:01.166Z,90520.72
2023-01-19T23:31:32.181Z,90538.25
2023-01-19T23:34:03.467Z,90543.59
2023-01-19T23:36:31.481Z,90560.88
2023-01-19T23:38:59.927Z,90575.31
2023-01-19T23:41:27.917Z,90596.03
2023-01-19T23:43:54.682Z,90605.00
2023-01-19T23:46:21.428Z,90619.06
2023-01-19T23:48:48.076Z,90621.91
2023-01-19T23:51:25.585Z,90622.34
2023-01-19T23:53:52.227Z,90630.19
2023-01-19T23:56:25.685Z,90628.22
2023-01-19T23:58:59.534Z,90641.69
